sensor_id;sensor_type;location;lat;lon;timestamp;P1;durP1;ratioP1;P2;durP2;ratioP2
35943;SDS011;74514;54.776;9.436;2024-02-21T00:00:04;34.63;;;9.90;;
35943;SDS011;74514;54.776;9.436;2024-02-21T00:02:33;55.17;;;12.73;;
35943;SDS011;74514;54.776;9.436;2024-02-21T00:05:02;55.38;;;12.70;;
35943;SDS011;74514;54.776;9.436;2024-02-21T00:07:31;61.60;;;11.55;;
35943;SDS011;74514;54.776;9.436;2024-02-21T00:10:00;54.17;;;12.15;;
35943;SDS011;74514;54.776;9.436;2024-02-21T00:12:28;40.83;;;9.52;;
35943;SDS011;74514;54.776;9.436;2024-02-21T00:14:57;38.17;;;9.70;;
35943;SDS011;74514;54.776;9.436;2024-02-21T00:17:26;31.58;;;8.63;;
35943;SDS011;74514;54.776;9.436;2024-02-21T00:19:55;36.83;;;10.68;;
35943;SDS011;74514;54.776;9.436;2024-02-21T00:24:53;37.60;;;11.68;;
35943;SDS011;74514;54.776;9.436;2024-02-21T00:27:21;43.50;;;9.57;;
35943;SDS011;74514;54.776;9.436;2024-02-21T00:29:50;48.25;;;11.60;;
35943;SDS011;74514;54.776;9.436;2024-02-21T00:32:19;34.92;;;9.77;;
35943;SDS011;74514;54.776;9.436;2024-02-21T00:34:49;44.17;;;10.05;;
35943;SDS011;74514;54.776;9.436;2024-02-21T00:37:20;29.27;;;9.57;;
35943;SDS011;74514;54.776;9.436;2024-02-21T00:42:17;27.42;;;9.02;;
35943;SDS011;74514;54.776;9.436;2024-02-21T00:44:46;38.08;;;9.32;;
35943;SDS011;74514;54.776;9.436;2024-02-21T00:47:15;44.85;;;9.95;;
35943;SDS011;74514;54.776;9.436;2024-02-21T00:49:44;50.92;;;10.55;;
35943;SDS011;74514;54.776;9.436;2024-02-21T00:52:13;36.80;;;9.82;;
35943;SDS011;74514;54.776;9.436;2024-02-21T00:54:41;22.73;;;6.13;;
35943;SDS011;74514;54.776;9.436;2024-02-21T00:57:20;32.05;;;10.68;;
35943;SDS011;74514;54.776;9.436;2024-02-21T00:59:49;35.38;;;10.13;;
35943;SDS011;74514;54.776;9.436;2024-02-21T01:02:19;68.93;;;13.88;;
35943;SDS011;74514;54.776;9.436;2024-02-21T01:04:48;41.92;;;10.43;;
35943;SDS011;74514;54.776;9.436;2024-02-21T01:07:17;36.55;;;8.70;;
35943;SDS011;74514;54.776;9.436;2024-02-21T01:09:46;41.10;;;9.48;;
35943;SDS011;74514;54.776;9.436;2024-02-21T01:12:14;33.25;;;9.57;;
35943;SDS011;74514;54.776;9.436;2024-02-21T01:14:43;41.85;;;11.15;;
35943;SDS011;74514;54.776;9.436;2024-02-21T01:17:14;30.08;;;7.05;;
35943;SDS011;74514;54.776;9.436;2024-02-21T01:19:43;33.70;;;9.23;;
35943;SDS011;74514;54.776;9.436;2024-02-21T01:22:11;29.83;;;9.13;;
35943;SDS011;74514;54.776;9.436;2024-02-21T01:24:40;35.92;;;9.02;;
35943;SDS011;74514;54.776;9.436;2024-02-21T01:27:08;29.33;;;7.80;;
35943;SDS011;74514;54.776;9.436;2024-02-21T01:29:37;38.08;;;8.60;;
35943;SDS011;74514;54.776;9.436;2024-02-21T01:32:06;29.20;;;9.52;;
35943;SDS011;74514;54.776;9.436;2024-02-21T01:34:35;30.65;;;6.53;;
35943;SDS011;74514;54.776;9.436;2024-02-21T01:37:04;27.27;;;7.07;;
35943;SDS011;74514;54.776;9.436;2024-02-21T01:39:35;21.13;;;6.78;;
35943;SDS011;74514;54.776;9.436;2024-02-21T01:42:04;28.77;;;7.43;;
35943;SDS011;74514;54.776;9.436;2024-02-21T01:44:32;17.88;;;6.30;;
35943;SDS011;74514;54.776;9.436;2024-02-21T01:47:01;15.70;;;5.35;;
35943;SDS011;74514;54.776;9.436;2024-02-21T01:49:30;22.42;;;5.70;;
35943;SDS011;74514;54.776;9.436;2024-02-21T01:52:00;20.95;;;7.80;;
35943;SDS011;74514;54.776;9.436;2024-02-21T01:54:29;16.35;;;7.63;;
35943;SDS011;74514;54.776;9.436;2024-02-21T01:56:59;24.52;;;6.93;;
35943;SDS011;74514;54.776;9.436;2024-02-21T01:59:28;21.63;;;5.43;;
35943;SDS011;74514;54.776;9.436;2024-02-21T02:01:57;20.70;;;7.57;;
35943;SDS011;74514;54.776;9.436;2024-02-21T02:04:27;27.25;;;7.30;;
35943;SDS011;74514;54.776;9.436;2024-02-21T02:06:55;23.83;;;8.10;;
35943;SDS011;74514;54.776;9.436;2024-02-21T02:09:25;14.70;;;5.70;;
35943;SDS011;74514;54.776;9.436;2024-02-21T02:11:53;19.42;;;8.70;;
35943;SDS011;74514;54.776;9.436;2024-02-21T02:14:22;38.50;;;10.25;;
35943;SDS011;74514;54.776;9.436;2024-02-21T02:16:52;33.42;;;8.68;;
35943;SDS011;74514;54.776;9.436;2024-02-21T02:19:21;25.40;;;6.63;;
35943;SDS011;74514;54.776;9.436;2024-02-21T02:21:51;21.92;;;6.32;;
35943;SDS011;74514;54.776;9.436;2024-02-21T02:24:24;17.25;;;4.57;;
35943;SDS011;74514;54.776;9.436;2024-02-21T02:26:55;20.85;;;5.47;;
35943;SDS011;74514;54.776;9.436;2024-02-21T02:29:24;17.77;;;5.00;;
35943;SDS011;74514;54.776;9.436;2024-02-21T02:31:53;18.83;;;5.20;;
35943;SDS011;74514;54.776;9.436;2024-02-21T02:34:22;14.55;;;3.95;;
35943;SDS011;74514;54.776;9.436;2024-02-21T02:36:51;20.02;;;4.15;;
35943;SDS011;74514;54.776;9.436;2024-02-21T02:39:19;14.40;;;4.32;;
35943;SDS011;74514;54.776;9.436;2024-02-21T02:44:16;9.95;;;3.92;;
35943;SDS011;74514;54.776;9.436;2024-02-21T02:46:45;8.93;;;3.47;;
35943;SDS011;74514;54.776;9.436;2024-02-21T02:49:13;16.20;;;4.10;;
35943;SDS011;74514;54.776;9.436;2024-02-21T02:51:42;20.40;;;5.88;;
35943;SDS011;74514;54.776;9.436;2024-02-21T02:54:12;14.13;;;4.10;;
35943;SDS011;74514;54.776;9.436;2024-02-21T02:56:40;12.10;;;3.60;;
35943;SDS011;74514;54.776;9.436;2024-02-21T02:59:09;25.30;;;5.28;;
35943;SDS011;74514;54.776;9.436;2024-02-21T03:01:37;16.85;;;4.93;;
35943;SDS011;74514;54.776;9.436;2024-02-21T03:06:34;27.90;;;5.28;;
35943;SDS011;74514;54.776;9.436;2024-02-21T03:09:03;30.63;;;5.50;;
35943;SDS011;74514;54.776;9.436;2024-02-21T03:11:36;14.30;;;3.42;;
35943;SDS011;74514;54.776;9.436;2024-02-21T03:14:06;29.00;;;5.32;;
35943;SDS011;74514;54.776;9.436;2024-02-21T03:16:34;25.35;;;5.15;;
35943;SDS011;74514;54.776;9.436;2024-02-21T03:19:03;24.98;;;5.55;;
35943;SDS011;74514;54.776;9.436;2024-02-21T03:21:31;35.22;;;6.82;;
35943;SDS011;74514;54.776;9.436;2024-02-21T03:24:00;27.80;;;4.35;;
35943;SDS011;74514;54.776;9.436;2024-02-21T03:26:29;28.83;;;5.53;;
35943;SDS011;74514;54.776;9.436;2024-02-21T03:28:57;27.92;;;5.32;;
35943;SDS011;74514;54.776;9.436;2024-02-21T03:33:57;29.40;;;4.38;;
35943;SDS011;74514;54.776;9.436;2024-02-21T03:36:26;20.88;;;4.10;;
35943;SDS011;74514;54.776;9.436;2024-02-21T03:38:55;23.42;;;3.70;;
35943;SDS011;74514;54.776;9.436;2024-02-21T03:43:52;24.42;;;3.90;;
35943;SDS011;74514;54.776;9.436;2024-02-21T03:46:21;27.75;;;4.78;;
35943;SDS011;74514;54.776;9.436;2024-02-21T03:48:49;21.73;;;4.35;;
35943;SDS011;74514;54.776;9.436;2024-02-21T03:51:18;19.45;;;4.05;;
35943;SDS011;74514;54.776;9.436;2024-02-21T03:53:47;9.95;;;3.50;;
35943;SDS011;74514;54.776;9.436;2024-02-21T03:56:16;20.50;;;3.75;;
35943;SDS011;74514;54.776;9.436;2024-02-21T03:58:44;24.20;;;4.15;;
35943;SDS011;74514;54.776;9.436;2024-02-21T04:01:14;33.20;;;4.78;;
35943;SDS011;74514;54.776;9.436;2024-02-21T04:03:43;35.03;;;4.65;;
35943;SDS011;74514;54.776;9.436;2024-02-21T04:06:12;22.38;;;4.10;;
35943;SDS011;74514;54.776;9.436;2024-02-21T04:08:41;20.60;;;4.63;;
35943;SDS011;74514;54.776;9.436;2024-02-21T04:11:09;22.13;;;3.25;;
35943;SDS011;74514;54.776;9.436;2024-02-21T04:13:37;27.05;;;4.57;;
35943;SDS011;74514;54.776;9.436;2024-02-21T04:16:06;28.35;;;3.47;;
35943;SDS011;74514;54.776;9.436;2024-02-21T04:18:34;11.75;;;3.03;;
35943;SDS011;74514;54.776;9.436;2024-02-21T04:21:03;22.88;;;4.35;;
35943;SDS011;74514;54.776;9.436;2024-02-21T04:23:32;23.98;;;3.85;;
35943;SDS011;74514;54.776;9.436;2024-02-21T04:26:01;20.52;;;3.83;;
35943;SDS011;74514;54.776;9.436;2024-02-21T04:28:30;22.38;;;4.32;;
35943;SDS011;74514;54.776;9.436;2024-02-21T04:30:58;38.20;;;6.45;;
35943;SDS011;74514;54.776;9.436;2024-02-21T04:33:26;51.13;;;7.22;;
35943;SDS011;74514;54.776;9.436;2024-02-21T04:35:55;32.08;;;4.32;;
35943;SDS011;74514;54.776;9.436;2024-02-21T04:38:24;20.55;;;2.75;;
35943;SDS011;74514;54.776;9.436;2024-02-21T04:40:52;21.67;;;4.55;;
35943;SDS011;74514;54.776;9.436;2024-02-21T04:43:21;22.60;;;3.17;;
35943;SDS011;74514;54.776;9.436;2024-02-21T04:45:49;24.75;;;4.38;;
35943;SDS011;74514;54.776;9.436;2024-02-21T04:48:18;18.30;;;3.97;;
35943;SDS011;74514;54.776;9.436;2024-02-21T04:50:47;27.85;;;5.03;;
35943;SDS011;74514;54.776;9.436;2024-02-21T04:53:16;19.77;;;4.35;;
35943;SDS011;74514;54.776;9.436;2024-02-21T04:55:45;26.10;;;4.95;;
35943;SDS011;74514;54.776;9.436;2024-02-21T04:58:14;29.73;;;5.57;;
35943;SDS011;74514;54.776;9.436;2024-02-21T05:00:43;21.35;;;5.22;;
35943;SDS011;74514;54.776;9.436;2024-02-21T05:03:11;25.67;;;3.70;;
35943;SDS011;74514;54.776;9.436;2024-02-21T05:05:40;20.65;;;3.70;;
35943;SDS011;74514;54.776;9.436;2024-02-21T05:10:36;37.25;;;5.30;;
35943;SDS011;74514;54.776;9.436;2024-02-21T05:13:05;28.67;;;4.78;;
35943;SDS011;74514;54.776;9.436;2024-02-21T05:15:33;33.72;;;4.72;;
35943;SDS011;74514;54.776;9.436;2024-02-21T05:18:02;31.10;;;3.70;;
35943;SDS011;74514;54.776;9.436;2024-02-21T05:22:59;18.23;;;4.00;;
35943;SDS011;74514;54.776;9.436;2024-02-21T05:25:30;21.35;;;4.35;;
35943;SDS011;74514;54.776;9.436;2024-02-21T05:27:58;23.30;;;3.42;;
35943;SDS011;74514;54.776;9.436;2024-02-21T05:30:30;14.35;;;3.25;;
35943;SDS011;74514;54.776;9.436;2024-02-21T05:32:58;33.55;;;6.30;;
35943;SDS011;74514;54.776;9.436;2024-02-21T05:35:27;35.33;;;4.88;;
35943;SDS011;74514;54.776;9.436;2024-02-21T05:40:24;25.27;;;4.18;;
35943;SDS011;74514;54.776;9.436;2024-02-21T05:42:53;12.02;;;2.00;;
35943;SDS011;74514;54.776;9.436;2024-02-21T05:45:21;26.35;;;4.10;;
35943;SDS011;74514;54.776;9.436;2024-02-21T05:47:49;52.15;;;5.85;;
35943;SDS011;74514;54.776;9.436;2024-02-21T05:50:18;15.13;;;3.85;;
35943;SDS011;74514;54.776;9.436;2024-02-21T05:52:47;19.40;;;4.45;;
35943;SDS011;74514;54.776;9.436;2024-02-21T05:55:16;35.17;;;3.67;;
35943;SDS011;74514;54.776;9.436;2024-02-21T05:57:44;33.95;;;5.07;;
35943;SDS011;74514;54.776;9.436;2024-02-21T06:00:13;48.05;;;4.95;;
35943;SDS011;74514;54.776;9.436;2024-02-21T06:02:41;24.17;;;4.20;;
35943;SDS011;74514;54.776;9.436;2024-02-21T06:05:10;37.00;;;4.97;;
35943;SDS011;74514;54.776;9.436;2024-02-21T06:07:38;28.13;;;5.65;;
35943;SDS011;74514;54.776;9.436;2024-02-21T06:10:07;39.90;;;5.45;;
35943;SDS011;74514;54.776;9.436;2024-02-21T06:12:36;25.90;;;4.43;;
35943;SDS011;74514;54.776;9.436;2024-02-21T06:15:04;20.42;;;3.67;;
35943;SDS011;74514;54.776;9.436;2024-02-21T06:17:33;21.58;;;2.95;;
35943;SDS011;74514;54.776;9.436;2024-02-21T06:22:30;35.88;;;5.22;;
35943;SDS011;74514;54.776;9.436;2024-02-21T06:24:58;30.58;;;4.82;;
35943;SDS011;74514;54.776;9.436;2024-02-21T06:27:27;25.73;;;4.93;;
35943;SDS011;74514;54.776;9.436;2024-02-21T06:32:23;27.27;;;4.00;;
35943;SDS011;74514;54.776;9.436;2024-02-21T06:37:20;21.63;;;3.80;;
35943;SDS011;74514;54.776;9.436;2024-02-21T06:39:49;40.65;;;5.15;;
35943;SDS011;74514;54.776;9.436;2024-02-21T06:42:17;34.58;;;4.63;;
35943;SDS011;74514;54.776;9.436;2024-02-21T06:44:46;31.92;;;4.07;;
35943;SDS011;74514;54.776;9.436;2024-02-21T06:47:15;28.38;;;3.88;;
35943;SDS011;74514;54.776;9.436;2024-02-21T06:49:43;33.40;;;4.93;;
35943;SDS011;74514;54.776;9.436;2024-02-21T06:52:19;29.50;;;4.20;;
35943;SDS011;74514;54.776;9.436;2024-02-21T06:54:53;23.77;;;3.97;;
35943;SDS011;74514;54.776;9.436;2024-02-21T06:57:21;27.30;;;6.10;;
35943;SDS011;74514;54.776;9.436;2024-02-21T06:59:49;25.45;;;3.40;;
35943;SDS011;74514;54.776;9.436;2024-02-21T07:04:45;42.00;;;6.50;;
35943;SDS011;74514;54.776;9.436;2024-02-21T07:09:42;21.92;;;4.00;;
35943;SDS011;74514;54.776;9.436;2024-02-21T07:12:10;27.27;;;3.30;;
35943;SDS011;74514;54.776;9.436;2024-02-21T07:17:07;26.52;;;3.80;;
35943;SDS011;74514;54.776;9.436;2024-02-21T07:19:35;22.13;;;3.45;;
35943;SDS011;74514;54.776;9.436;2024-02-21T07:22:04;31.42;;;3.88;;
35943;SDS011;74514;54.776;9.436;2024-02-21T07:24:32;35.08;;;3.67;;
35943;SDS011;74514;54.776;9.436;2024-02-21T07:27:01;26.35;;;3.83;;
35943;SDS011;74514;54.776;9.436;2024-02-21T07:29:32;17.95;;;2.45;;
35943;SDS011;74514;54.776;9.436;2024-02-21T07:32:02;29.13;;;3.13;;
35943;SDS011;74514;54.776;9.436;2024-02-21T07:34:33;15.90;;;3.72;;
35943;SDS011;74514;54.776;9.436;2024-02-21T07:37:01;21.10;;;3.80;;
35943;SDS011;74514;54.776;9.436;2024-02-21T07:39:30;15.18;;;4.07;;
35943;SDS011;74514;54.776;9.436;2024-02-21T07:41:58;37.65;;;5.00;;
35943;SDS011;74514;54.776;9.436;2024-02-21T07:44:28;35.67;;;5.68;;
35943;SDS011;74514;54.776;9.436;2024-02-21T07:46:58;25.63;;;3.42;;
35943;SDS011;74514;54.776;9.436;2024-02-21T07:49:26;22.50;;;4.07;;
35943;SDS011;74514;54.776;9.436;2024-02-21T07:51:54;13.43;;;3.22;;
35943;SDS011;74514;54.776;9.436;2024-02-21T07:54:22;22.88;;;3.85;;
35943;SDS011;74514;54.776;9.436;2024-02-21T07:56:50;27.55;;;3.38;;
35943;SDS011;74514;54.776;9.436;2024-02-21T07:59:19;17.85;;;4.65;;
35943;SDS011;74514;54.776;9.436;2024-02-21T08:01:46;21.75;;;4.07;;
35943;SDS011;74514;54.776;9.436;2024-02-21T08:04:15;21.42;;;2.90;;
35943;SDS011;74514;54.776;9.436;2024-02-21T08:06:43;29.08;;;4.28;;
35943;SDS011;74514;54.776;9.436;2024-02-21T08:09:13;27.75;;;3.63;;
35943;SDS011;74514;54.776;9.436;2024-02-21T08:11:41;18.08;;;2.97;;
35943;SDS011;74514;54.776;9.436;2024-02-21T08:14:10;20.23;;;3.15;;
35943;SDS011;74514;54.776;9.436;2024-02-21T08:16:38;22.90;;;2.58;;
35943;SDS011;74514;54.776;9.436;2024-02-21T08:19:06;37.90;;;5.80;;
35943;SDS011;74514;54.776;9.436;2024-02-21T08:24:03;19.52;;;3.80;;
35943;SDS011;74514;54.776;9.436;2024-02-21T08:26:31;19.35;;;2.60;;
35943;SDS011;74514;54.776;9.436;2024-02-21T08:29:00;22.20;;;4.10;;
35943;SDS011;74514;54.776;9.436;2024-02-21T08:31:28;22.65;;;3.65;;
35943;SDS011;74514;54.776;9.436;2024-02-21T08:34:02;24.08;;;4.28;;
35943;SDS011;74514;54.776;9.436;2024-02-21T08:36:32;20.75;;;3.40;;
35943;SDS011;74514;54.776;9.436;2024-02-21T08:39:01;32.13;;;4.57;;
35943;SDS011;74514;54.776;9.436;2024-02-21T08:41:33;26.05;;;4.75;;
35943;SDS011;74514;54.776;9.436;2024-02-21T08:44:22;30.33;;;5.70;;
35943;SDS011;74514;54.776;9.436;2024-02-21T08:46:51;20.50;;;4.00;;
35943;SDS011;74514;54.776;9.436;2024-02-21T08:49:19;39.25;;;5.20;;
35943;SDS011;74514;54.776;9.436;2024-02-21T08:51:48;33.85;;;5.53;;
35943;SDS011;74514;54.776;9.436;2024-02-21T08:56:45;17.70;;;3.83;;
35943;SDS011;74514;54.776;9.436;2024-02-21T08:59:13;22.52;;;4.40;;
35943;SDS011;74514;54.776;9.436;2024-02-21T09:01:43;33.10;;;4.82;;
35943;SDS011;74514;54.776;9.436;2024-02-21T09:04:12;34.88;;;4.25;;
35943;SDS011;74514;54.776;9.436;2024-02-21T09:06:40;33.00;;;3.42;;
35943;SDS011;74514;54.776;9.436;2024-02-21T09:09:10;17.80;;;2.15;;
35943;SDS011;74514;54.776;9.436;2024-02-21T09:11:38;21.48;;;3.65;;
35943;SDS011;74514;54.776;9.436;2024-02-21T09:14:08;28.33;;;3.33;;
35943;SDS011;74514;54.776;9.436;2024-02-21T09:16:36;28.38;;;3.90;;
35943;SDS011;74514;54.776;9.436;2024-02-21T09:19:05;31.40;;;4.20;;
35943;SDS011;74514;54.776;9.436;2024-02-21T09:21:33;21.80;;;3.63;;
35943;SDS011;74514;54.776;9.436;2024-02-21T09:24:01;28.73;;;4.38;;
35943;SDS011;74514;54.776;9.436;2024-02-21T09:26:31;38.35;;;4.07;;
35943;SDS011;74514;54.776;9.436;2024-02-21T09:28:59;30.98;;;5.03;;
35943;SDS011;74514;54.776;9.436;2024-02-21T09:31:28;30.52;;;3.72;;
35943;SDS011;74514;54.776;9.436;2024-02-21T09:33:56;45.90;;;4.18;;
35943;SDS011;74514;54.776;9.436;2024-02-21T09:36:25;21.55;;;2.88;;
35943;SDS011;74514;54.776;9.436;2024-02-21T09:38:53;19.92;;;2.58;;
35943;SDS011;74514;54.776;9.436;2024-02-21T09:41:26;20.38;;;3.35;;
35943;SDS011;74514;54.776;9.436;2024-02-21T09:43:55;20.88;;;4.72;;
35943;SDS011;74514;54.776;9.436;2024-02-21T09:46:25;21.75;;;3.75;;
35943;SDS011;74514;54.776;9.436;2024-02-21T09:51:28;16.77;;;2.97;;
35943;SDS011;74514;54.776;9.436;2024-02-21T09:54:00;15.32;;;3.00;;
35943;SDS011;74514;54.776;9.436;2024-02-21T09:56:42;52.33;;;3.70;;
35943;SDS011;74514;54.776;9.436;2024-02-21T09:59:10;23.90;;;3.92;;
35943;SDS011;74514;54.776;9.436;2024-02-21T10:01:39;27.85;;;4.60;;
35943;SDS011;74514;54.776;9.436;2024-02-21T10:04:08;12.40;;;2.03;;
35943;SDS011;74514;54.776;9.436;2024-02-21T10:06:36;21.50;;;3.80;;
35943;SDS011;74514;54.776;9.436;2024-02-21T10:09:07;17.33;;;2.30;;
35943;SDS011;74514;54.776;9.436;2024-02-21T10:11:35;16.38;;;2.38;;
35943;SDS011;74514;54.776;9.436;2024-02-21T10:14:07;10.93;;;2.67;;
35943;SDS011;74514;54.776;9.436;2024-02-21T10:16:36;19.42;;;2.25;;
35943;SDS011;74514;54.776;9.436;2024-02-21T10:19:05;16.38;;;3.08;;
35943;SDS011;74514;54.776;9.436;2024-02-21T10:21:34;21.10;;;2.97;;
35943;SDS011;74514;54.776;9.436;2024-02-21T10:24:05;22.08;;;3.30;;
35943;SDS011;74514;54.776;9.436;2024-02-21T10:26:33;12.38;;;2.47;;
35943;SDS011;74514;54.776;9.436;2024-02-21T10:29:02;16.25;;;2.83;;
35943;SDS011;74514;54.776;9.436;2024-02-21T10:34:01;19.17;;;2.42;;
35943;SDS011;74514;54.776;9.436;2024-02-21T10:39:02;12.52;;;1.83;;
35943;SDS011;74514;54.776;9.436;2024-02-21T10:41:30;12.75;;;1.88;;
35943;SDS011;74514;54.776;9.436;2024-02-21T10:46:27;8.02;;;1.75;;
35943;SDS011;74514;54.776;9.436;2024-02-21T10:49:01;14.38;;;2.17;;
35943;SDS011;74514;54.776;9.436;2024-02-21T10:51:30;16.08;;;2.70;;
35943;SDS011;74514;54.776;9.436;2024-02-21T10:56:36;20.52;;;2.47;;
35943;SDS011;74514;54.776;9.436;2024-02-21T10:59:06;14.57;;;3.00;;
35943;SDS011;74514;54.776;9.436;2024-02-21T11:01:33;22.73;;;2.97;;
35943;SDS011;74514;54.776;9.436;2024-02-21T11:04:04;14.07;;;4.03;;
35943;SDS011;74514;54.776;9.436;2024-02-21T11:06:32;5.65;;;1.33;;
35943;SDS011;74514;54.776;9.436;2024-02-21T11:09:04;10.43;;;1.35;;
35943;SDS011;74514;54.776;9.436;2024-02-21T11:11:35;11.43;;;3.47;;
35943;SDS011;74514;54.776;9.436;2024-02-21T11:14:10;13.82;;;2.22;;
35943;SDS011;74514;54.776;9.436;2024-02-21T11:16:39;14.75;;;4.25;;
35943;SDS011;74514;54.776;9.436;2024-02-21T11:19:18;12.57;;;3.03;;
35943;SDS011;74514;54.776;9.436;2024-02-21T11:21:46;12.35;;;5.15;;
35943;SDS011;74514;54.776;9.436;2024-02-21T11:24:31;8.63;;;1.73;;
35943;SDS011;74514;54.776;9.436;2024-02-21T11:29:55;10.55;;;2.72;;
35943;SDS011;74514;54.776;9.436;2024-02-21T11:32:23;7.68;;;2.13;;
35943;SDS011;74514;54.776;9.436;2024-02-21T11:35:01;17.40;;;2.60;;
35943;SDS011;74514;54.776;9.436;2024-02-21T11:37:35;7.88;;;1.77;;
35943;SDS011;74514;54.776;9.436;2024-02-21T11:40:06;14.88;;;2.22;;
35943;SDS011;74514;54.776;9.436;2024-02-21T11:42:39;18.05;;;2.55;;
35943;SDS011;74514;54.776;9.436;2024-02-21T11:45:06;13.25;;;2.75;;
35943;SDS011;74514;54.776;9.436;2024-02-21T11:47:36;18.23;;;3.30;;
35943;SDS011;74514;54.776;9.436;2024-02-21T11:50:09;10.70;;;1.60;;
35943;SDS011;74514;54.776;9.436;2024-02-21T11:52:37;11.40;;;2.45;;
35943;SDS011;74514;54.776;9.436;2024-02-21T11:55:05;9.95;;;2.17;;
35943;SDS011;74514;54.776;9.436;2024-02-21T11:57:36;18.98;;;2.90;;
35943;SDS011;74514;54.776;9.436;2024-02-21T12:00:14;12.35;;;2.88;;
35943;SDS011;74514;54.776;9.436;2024-02-21T12:02:43;16.35;;;3.53;;
35943;SDS011;74514;54.776;9.436;2024-02-21T12:05:11;17.50;;;3.35;;
35943;SDS011;74514;54.776;9.436;2024-02-21T12:07:39;20.42;;;3.60;;
35943;SDS011;74514;54.776;9.436;2024-02-21T12:10:10;13.05;;;3.83;;
35943;SDS011;74514;54.776;9.436;2024-02-21T12:12:38;14.18;;;3.13;;
35943;SDS011;74514;54.776;9.436;2024-02-21T12:15:07;12.73;;;2.55;;
35943;SDS011;74514;54.776;9.436;2024-02-21T12:17:35;16.38;;;3.47;;
35943;SDS011;74514;54.776;9.436;2024-02-21T12:22:37;10.95;;;2.20;;
35943;SDS011;74514;54.776;9.436;2024-02-21T12:25:18;14.88;;;3.88;;
35943;SDS011;74514;54.776;9.436;2024-02-21T12:27:46;14.52;;;4.38;;
35943;SDS011;74514;54.776;9.436;2024-02-21T12:30:14;10.35;;;3.95;;
35943;SDS011;74514;54.776;9.436;2024-02-21T12:32:41;21.35;;;4.78;;
35943;SDS011;74514;54.776;9.436;2024-02-21T12:35:09;12.27;;;4.60;;
35943;SDS011;74514;54.776;9.436;2024-02-21T12:37:36;11.27;;;3.22;;
35943;SDS011;74514;54.776;9.436;2024-02-21T12:40:07;11.93;;;4.78;;
35943;SDS011;74514;54.776;9.436;2024-02-21T12:42:34;18.35;;;4.20;;
35943;SDS011;74514;54.776;9.436;2024-02-21T12:45:02;27.30;;;5.90;;
35943;SDS011;74514;54.776;9.436;2024-02-21T12:47:30;14.80;;;4.57;;
35943;SDS011;74514;54.776;9.436;2024-02-21T12:49:58;22.67;;;5.25;;
35943;SDS011;74514;54.776;9.436;2024-02-21T12:52:26;21.88;;;5.20;;
35943;SDS011;74514;54.776;9.436;2024-02-21T12:54:53;27.98;;;6.88;;
35943;SDS011;74514;54.776;9.436;2024-02-21T12:57:24;8.80;;;3.88;;
35943;SDS011;74514;54.776;9.436;2024-02-21T12:59:54;19.08;;;6.75;;
35943;SDS011;74514;54.776;9.436;2024-02-21T13:02:21;26.75;;;6.90;;
35943;SDS011;74514;54.776;9.436;2024-02-21T13:04:49;14.65;;;4.82;;
35943;SDS011;74514;54.776;9.436;2024-02-21T13:07:16;24.70;;;7.18;;
35943;SDS011;74514;54.776;9.436;2024-02-21T13:09:44;21.85;;;6.78;;
35943;SDS011;74514;54.776;9.436;2024-02-21T13:12:11;18.58;;;6.25;;
35943;SDS011;74514;54.776;9.436;2024-02-21T13:14:39;14.85;;;7.72;;
35943;SDS011;74514;54.776;9.436;2024-02-21T13:17:06;20.50;;;5.43;;
35943;SDS011;74514;54.776;9.436;2024-02-21T13:19:34;14.52;;;4.60;;
35943;SDS011;74514;54.776;9.436;2024-02-21T13:22:02;20.05;;;5.90;;
35943;SDS011;74514;54.776;9.436;2024-02-21T13:24:30;18.83;;;5.57;;
35943;SDS011;74514;54.776;9.436;2024-02-21T13:26:57;19.05;;;4.75;;
35943;SDS011;74514;54.776;9.436;2024-02-21T13:29:25;10.05;;;3.25;;
35943;SDS011;74514;54.776;9.436;2024-02-21T13:31:52;14.38;;;5.03;;
35943;SDS011;74514;54.776;9.436;2024-02-21T13:34:19;14.63;;;5.78;;
35943;SDS011;74514;54.776;9.436;2024-02-21T13:36:47;7.82;;;3.80;;
35943;SDS011;74514;54.776;9.436;2024-02-21T13:39:14;12.05;;;5.05;;
35943;SDS011;74514;54.776;9.436;2024-02-21T13:41:46;9.88;;;4.07;;
35943;SDS011;74514;54.776;9.436;2024-02-21T13:44:14;6.95;;;3.60;;
35943;SDS011;74514;54.776;9.436;2024-02-21T13:46:41;11.70;;;4.68;;
35943;SDS011;74514;54.776;9.436;2024-02-21T13:49:09;8.68;;;3.55;;
35943;SDS011;74514;54.776;9.436;2024-02-21T13:51:36;14.73;;;5.75;;
35943;SDS011;74514;54.776;9.436;2024-02-21T13:54:04;13.18;;;4.53;;
35943;SDS011;74514;54.776;9.436;2024-02-21T13:56:32;12.52;;;5.43;;
35943;SDS011;74514;54.776;9.436;2024-02-21T13:58:59;19.90;;;6.10;;
35943;SDS011;74514;54.776;9.436;2024-02-21T14:01:30;17.92;;;4.88;;
35943;SDS011;74514;54.776;9.436;2024-02-21T14:03:59;24.58;;;7.18;;
35943;SDS011;74514;54.776;9.436;2024-02-21T14:06:27;18.17;;;5.22;;
35943;SDS011;74514;54.776;9.436;2024-02-21T14:08:55;15.18;;;5.20;;
35943;SDS011;74514;54.776;9.436;2024-02-21T14:11:22;13.38;;;5.78;;
35943;SDS011;74514;54.776;9.436;2024-02-21T14:13:51;14.40;;;5.60;;
35943;SDS011;74514;54.776;9.436;2024-02-21T14:16:18;19.45;;;6.25;;
35943;SDS011;74514;54.776;9.436;2024-02-21T14:18:46;24.90;;;8.02;;
35943;SDS011;74514;54.776;9.436;2024-02-21T14:21:13;17.90;;;6.95;;
35943;SDS011;74514;54.776;9.436;2024-02-21T14:23:41;20.63;;;7.57;;
35943;SDS011;74514;54.776;9.436;2024-02-21T14:26:08;18.35;;;6.55;;
35943;SDS011;74514;54.776;9.436;2024-02-21T14:28:35;19.90;;;7.35;;
35943;SDS011;74514;54.776;9.436;2024-02-21T14:31:03;15.25;;;5.93;;
35943;SDS011;74514;54.776;9.436;2024-02-21T14:33:33;17.80;;;7.18;;
35943;SDS011;74514;54.776;9.436;2024-02-21T14:36:01;19.75;;;6.70;;
35943;SDS011;74514;54.776;9.436;2024-02-21T14:38:29;21.33;;;6.25;;
35943;SDS011;74514;54.776;9.436;2024-02-21T14:40:57;23.27;;;8.73;;
35943;SDS011;74514;54.776;9.436;2024-02-21T14:43:24;20.20;;;6.45;;
35943;SDS011;74514;54.776;9.436;2024-02-21T14:45:53;19.52;;;6.53;;
35943;SDS011;74514;54.776;9.436;2024-02-21T14:48:21;18.05;;;6.78;;
35943;SDS011;74514;54.776;9.436;2024-02-21T14:50:49;22.23;;;6.78;;
35943;SDS011;74514;54.776;9.436;2024-02-21T14:53:16;22.05;;;6.95;;
35943;SDS011;74514;54.776;9.436;2024-02-21T14:55:44;23.52;;;9.38;;
35943;SDS011;74514;54.776;9.436;2024-02-21T14:58:11;23.73;;;7.88;;
35943;SDS011;74514;54.776;9.436;2024-02-21T15:00:39;29.52;;;9.07;;
35943;SDS011;74514;54.776;9.436;2024-02-21T15:03:06;24.30;;;7.13;;
35943;SDS011;74514;54.776;9.436;2024-02-21T15:05:34;25.05;;;8.88;;
35943;SDS011;74514;54.776;9.436;2024-02-21T15:08:03;31.25;;;9.63;;
35943;SDS011;74514;54.776;9.436;2024-02-21T15:12:58;22.75;;;8.48;;
35943;SDS011;74514;54.776;9.436;2024-02-21T15:15:25;38.97;;;11.10;;
35943;SDS011;74514;54.776;9.436;2024-02-21T15:17:52;61.88;;;15.00;;
35943;SDS011;74514;54.776;9.436;2024-02-21T15:20:20;25.48;;;9.18;;
35943;SDS011;74514;54.776;9.436;2024-02-21T15:22:47;39.13;;;13.43;;
35943;SDS011;74514;54.776;9.436;2024-02-21T15:25:15;44.53;;;13.50;;
35943;SDS011;74514;54.776;9.436;2024-02-21T15:30:11;39.38;;;13.82;;
35943;SDS011;74514;54.776;9.436;2024-02-21T15:32:38;27.58;;;10.75;;
35943;SDS011;74514;54.776;9.436;2024-02-21T15:35:06;39.83;;;12.02;;
35943;SDS011;74514;54.776;9.436;2024-02-21T15:37:34;48.85;;;14.23;;
35943;SDS011;74514;54.776;9.436;2024-02-21T15:40:02;40.58;;;13.85;;
35943;SDS011;74514;54.776;9.436;2024-02-21T15:42:32;34.90;;;12.00;;
35943;SDS011;74514;54.776;9.436;2024-02-21T15:45:00;35.13;;;9.93;;
35943;SDS011;74514;54.776;9.436;2024-02-21T15:47:27;41.90;;;13.77;;